Brunswick, GA

12:05 PM EDT on July 24, 2014 (GMT -0400)
Glynco Jetport (KBQK) Elev 26 ft | 31.26 °N, 81.47 °W | Change Station

Current weather conditions updated 15 minutes ago

Mostly Cloudy
Mostly Cloudy
88 °F
Feels Like 94 °F
N
0
Wind Variable Wind from North

Today is forecast to be nearly the same temperature as yesterday.

Today
High -- | Low -- °F
--% Chance of Precip.
Yesterday
High -- | Low -- °F
Precip. -- in
6:37 AM 8:26 PM
Waning Crescent, 5% visible
Pressure 30.03 in
Visibility 10.0 miles
Clouds Mostly Cloudy 3100 ft
Mostly Cloudy 4400 ft
Heat Index 94 °F
Dew Point 72 °F
Humidity 58%
Rainfall 0.00 in
Snow Depth Not available.
UV 6 out of 12
Pollen 4.90 out of 12
Air Quality Not available.
Flu Activity Not available.
METAR KBQK 241550Z AUTO 00000KT 10SM BKN031 BKN044 31/22 A3003 RMK AO1 LTG DSNT SE

More Conditions Fewer Conditions

Pressure 30.03 in
Visibility 10.0 miles
Clouds Mostly Cloudy 3100 ft
Mostly Cloudy 4400 ft
Heat Index 94 °F
Dew Point 72 °F
Humidity 58%
Rainfall 0.00 in
Snow Depth Not available.
UV 6 out of 12
Pollen 4.90 out of 12
Air Quality Not available.
Flu Activity Not available.
METAR KBQK 241550Z AUTO 00000KT 10SM BKN031 BKN044 31/22 A3003 RMK AO1 LTG DSNT SE

More Conditions Fewer Conditions

10-Day Weather Forecast

Almanac

Astronomy

Jul. 24, 2014 Rise Set
Actual Time 6:37 AM EDT 8:26 PM EDT
Civil Twilight 6:10 AM EDT 8:53 PM EDT
Nautical Twilight 5:38 AM EDT 9:25 PM EDT
Astronomical Twilight 5:04 AM EDT 10:00 PM EDT
Moon 4:43 AM EDT 6:42 PM EDT
Length of Visible Light 14h 42m
Length of Day
13h 48m
Tomorrow will be 1m 13s shorter.
Waning Crescent, 5% of the Moon is Illuminated
Today
Waning Crescent
Jul 26
New
Aug 3
First Quarter
Aug 10
Full
Aug 17
Last Quarter

Today's Extremes

State Highs State Lows

Community

WunderPhotos

Upload Photos

1,737,055 photos uploaded!

Nearby

Snow Depth

Station Depth Elevation
No new snow has been reported.

Earthquake Activity

City Distance Mag. Time & Date
No recent earthquake activity has been reported nearby.
Minimum magnitude displayed is 2.5.

Coastal Water Temperatures

Place Temperature
Fernandina Beach, FL 84.9 °F
Mayport (Bar Pilots Dock), FL 86.0 °F

Nearby Weather Stations

Station Location Temp. Heat Index Dew Point Humidity Wind Precip. Elev Updated Type
Avalon Place, Brunswick, GA 87.8 °F 98 °F 76 °F 67% West  at  5.4 mph 0.00 in / hr 43 ft 12:05 PM EDT Rapid Fire
Country Walk, Brunswick, GA 88.9 °F 103 °F 78 °F 70% SSE  at  0.0 mph 0.00 in / hr 30 ft 12:05 PM EDT Rapid Fire
RAWS STERLING GA, Brunswick, GA 87 °F 96 °F 74 °F 66% West  at  4 mph 0.00 in / hr 13 ft 11:04 AM EDT MADIS

Show More Stations Show Fewer Stations